createdAt,value
2019-03-03T00:00:35.374Z,14.17
2019-03-03T00:03:05.974Z,14.65
2019-03-03T00:05:36.538Z,14.33
2019-03-03T00:08:07.137Z,14.18
2019-03-03T00:10:40.273Z,14.07
2019-03-03T00:13:10.854Z,13.90
2019-03-03T00:15:43.308Z,12.78
2019-03-03T00:18:14.208Z,13.73
2019-03-03T00:20:45.172Z,12.73
2019-03-03T00:23:15.891Z,12.98
2019-03-03T00:25:48.350Z,12.25
2019-03-03T00:28:19.100Z,12.47
2019-03-03T00:30:50.799Z,11.80
2019-03-03T00:33:23.164Z,12.43
2019-03-03T00:35:53.750Z,11.65
2019-03-03T00:38:43.309Z,12.35
2019-03-03T00:41:22.203Z,11.43
2019-03-03T00:44:09.118Z,12.18
2019-03-03T00:47:00.486Z,11.35
2019-03-03T00:49:41.455Z,11.90
2019-03-03T00:52:17.758Z,11.73
2019-03-03T00:55:05.874Z,11.12
2019-03-03T00:57:56.775Z,11.18
2019-03-03T01:00:33.204Z,10.68
2019-03-03T01:03:25.447Z,10.70
2019-03-03T01:06:23.810Z,10.80
2019-03-03T01:09:08.226Z,11.55
2019-03-03T01:12:00.853Z,11.38
2019-03-03T01:14:47.363Z,10.65
2019-03-03T01:17:37.012Z,10.72
2019-03-03T01:20:23.397Z,10.10
2019-03-03T01:23:09.357Z,9.95
2019-03-03T01:25:41.067Z,10.53
2019-03-03T01:28:11.655Z,10.43
2019-03-03T01:30:43.667Z,10.95
2019-03-03T01:33:14.468Z,10.03
2019-03-03T01:35:45.122Z,11.53
2019-03-03T01:38:16.750Z,10.45
2019-03-03T01:40:48.809Z,10.35
2019-03-03T01:43:19.497Z,9.95
2019-03-03T01:45:50.056Z,9.88
2019-03-03T01:48:20.765Z,9.80
2019-03-03T01:50:53.890Z,9.73
2019-03-03T01:53:24.637Z,9.35
2019-03-03T01:55:55.421Z,9.75
2019-03-03T01:58:28.616Z,9.55
2019-03-03T02:00:59.346Z,9.28
2019-03-03T02:03:30.793Z,8.53
2019-03-03T02:06:01.477Z,8.20
2019-03-03T02:08:32.045Z,7.45
2019-03-03T02:11:02.691Z,8.03
2019-03-03T02:13:33.359Z,8.35
2019-03-03T02:16:04.847Z,7.67
2019-03-03T02:18:35.674Z,7.85
2019-03-03T02:21:07.557Z,7.30
2019-03-03T02:23:38.233Z,7.28
2019-03-03T02:26:08.897Z,7.08
2019-03-03T02:28:39.438Z,7.10
2019-03-03T02:31:10.033Z,7.08
2019-03-03T02:33:42.049Z,6.60
2019-03-03T02:36:12.622Z,6.87
2019-03-03T02:38:44.978Z,6.70
2019-03-03T02:41:15.613Z,6.33
2019-03-03T02:43:46.156Z,6.10
2019-03-03T02:46:16.737Z,6.58
2019-03-03T02:48:47.281Z,5.80
2019-03-03T02:51:17.883Z,6.47
2019-03-03T02:53:48.661Z,6.13
2019-03-03T02:56:19.345Z,6.30
2019-03-03T02:58:51.025Z,5.92
2019-03-03T03:01:29.760Z,5.58
2019-03-03T03:04:00.337Z,6.20
2019-03-03T03:06:42.636Z,5.47
2019-03-03T03:09:22.636Z,5.87
2019-03-03T03:12:28.971Z,5.72
2019-03-03T03:15:24.801Z,5.53
2019-03-03T03:18:07.324Z,5.60
2019-03-03T03:20:46.483Z,4.92
2019-03-03T03:23:39.200Z,5.20
2019-03-03T03:26:20.337Z,4.55
2019-03-03T03:28:58.681Z,5.10
2019-03-03T03:31:48.225Z,5.28
2019-03-03T03:34:26.272Z,5.15
2019-03-03T03:37:17.517Z,4.87
2019-03-03T03:40:01.390Z,4.80
2019-03-03T03:42:41.396Z,4.60
2019-03-03T03:45:49.381Z,4.76
2019-03-03T03:48:38.898Z,4.37
2019-03-03T03:51:21.354Z,4.25
2019-03-03T03:54:03.038Z,4.10
2019-03-03T03:56:56.926Z,3.87
2019-03-03T03:59:58.799Z,3.90
2019-03-03T04:02:59.777Z,3.45
2019-03-03T04:05:47.236Z,3.45
2019-03-03T04:08:24.089Z,3.70
2019-03-03T04:11:25.708Z,3.17
2019-03-03T04:14:18.212Z,3.40
2019-03-03T04:17:10.881Z,3.30
2019-03-03T04:20:04.724Z,3.20
2019-03-03T04:23:03.304Z,2.80
2019-03-03T04:25:57.529Z,3.35
2019-03-03T04:28:48.067Z,3.25
2019-03-03T04:31:30.649Z,2.93
2019-03-03T04:34:20.114Z,2.72
2019-03-03T04:37:12.627Z,3.05
2019-03-03T04:39:52.708Z,3.08
2019-03-03T04:43:00.641Z,2.77
2019-03-03T04:45:38.432Z,3.02
2019-03-03T04:48:34.764Z,2.52
2019-03-03T04:51:23.052Z,2.70
2019-03-03T04:54:15.542Z,2.42
2019-03-03T04:57:01.622Z,2.90
2019-03-03T04:59:49.587Z,2.87
2019-03-03T05:02:42.236Z,2.62
2019-03-03T05:05:20.808Z,2.30
2019-03-03T05:08:15.073Z,2.60
2019-03-03T05:11:03.548Z,2.45
2019-03-03T05:13:58.829Z,2.50
2019-03-03T05:16:57.332Z,2.25
2019-03-03T05:19:32.329Z,2.50
2019-03-03T05:22:02.938Z,2.50
2019-03-03T05:24:34.486Z,2.33
2019-03-03T05:27:05.258Z,2.27
2019-03-03T05:29:35.959Z,2.45
2019-03-03T05:32:06.504Z,2.40
2019-03-03T05:34:37.118Z,2.50
2019-03-03T05:37:07.686Z,3.00
2019-03-03T05:39:38.276Z,2.40
2019-03-03T05:42:08.971Z,2.62
2019-03-03T05:44:39.619Z,2.35
2019-03-03T05:47:10.265Z,2.27
2019-03-03T05:49:41.365Z,2.80
2019-03-03T05:52:13.752Z,2.60
2019-03-03T05:54:44.362Z,2.80
2019-03-03T05:57:14.940Z,2.92
2019-03-03T05:59:45.502Z,2.37
2019-03-03T06:02:16.075Z,2.90
2019-03-03T06:04:46.688Z,2.55
2019-03-03T06:07:17.238Z,2.45
2019-03-03T06:09:47.772Z,2.85
2019-03-03T06:12:20.159Z,2.45
2019-03-03T06:14:52.502Z,2.37
2019-03-03T06:17:23.119Z,2.70
2019-03-03T06:19:53.658Z,2.55
2019-03-03T06:22:24.304Z,2.98
2019-03-03T06:24:54.876Z,2.62
2019-03-03T06:27:25.576Z,2.98
2019-03-03T06:29:57.925Z,2.95
2019-03-03T06:32:28.668Z,3.00
2019-03-03T06:35:00.440Z,3.33
2019-03-03T06:37:31.012Z,3.20
2019-03-03T06:40:01.723Z,2.80
2019-03-03T06:42:34.800Z,3.20
2019-03-03T06:45:06.225Z,2.87
2019-03-03T06:47:36.984Z,2.80
2019-03-03T06:50:10.073Z,3.05
2019-03-03T06:52:40.734Z,3.40
2019-03-03T06:55:14.373Z,3.72
2019-03-03T06:57:45.965Z,3.00
2019-03-03T07:00:18.270Z,3.17
2019-03-03T07:02:48.986Z,3.08
2019-03-03T07:05:19.833Z,3.60
2019-03-03T07:07:51.637Z,3.12
2019-03-03T07:10:22.275Z,3.50
2019-03-03T07:12:52.857Z,3.42
2019-03-03T07:15:23.841Z,3.00
2019-03-03T07:17:54.507Z,3.40
2019-03-03T07:20:26.526Z,3.20
2019-03-03T07:22:57.100Z,3.80
2019-03-03T07:25:27.641Z,3.35
2019-03-03T07:27:58.360Z,3.12
2019-03-03T07:30:29.053Z,2.90
2019-03-03T07:33:26.444Z,2.45
2019-03-03T07:35:56.986Z,3.27
2019-03-03T07:38:27.697Z,2.98
2019-03-03T07:40:58.310Z,3.00
2019-03-03T07:43:28.997Z,2.77
2019-03-03T07:45:59.646Z,2.62
2019-03-03T07:48:32.916Z,2.87
2019-03-03T07:51:05.858Z,2.62
2019-03-03T07:53:36.436Z,2.67
2019-03-03T07:56:10.055Z,2.83
2019-03-03T07:58:40.798Z,3.10
2019-03-03T08:01:12.947Z,2.20
2019-03-03T08:03:43.592Z,2.35
2019-03-03T08:06:15.854Z,2.60
2019-03-03T08:08:46.398Z,2.65
2019-03-03T08:11:18.035Z,2.65
2019-03-03T08:13:48.674Z,2.30
2019-03-03T08:16:19.377Z,2.55
2019-03-03T08:18:49.968Z,2.42
2019-03-03T08:21:20.577Z,2.42
2019-03-03T08:23:51.194Z,2.45
2019-03-03T08:26:22.204Z,2.40
2019-03-03T08:28:54.557Z,1.77
2019-03-03T08:31:25.159Z,2.37
2019-03-03T08:33:55.811Z,2.20
2019-03-03T08:36:26.603Z,2.35
2019-03-03T08:38:57.286Z,2.40
2019-03-03T08:41:27.894Z,2.50
2019-03-03T08:44:20.694Z,2.50
2019-03-03T08:47:17.186Z,2.42
2019-03-03T08:49:54.209Z,2.33
2019-03-03T08:52:44.724Z,2.33
2019-03-03T08:55:28.118Z,1.98
2019-03-03T08:58:35.808Z,2.10
2019-03-03T09:01:30.324Z,2.05
2019-03-03T09:04:10.333Z,2.05
2019-03-03T09:07:05.617Z,1.72
2019-03-03T09:10:01.561Z,2.42
2019-03-03T09:12:50.208Z,2.30
2019-03-03T09:15:27.670Z,2.27
2019-03-03T09:18:16.832Z,1.80
2019-03-03T09:21:13.401Z,1.90
2019-03-03T09:24:21.282Z,2.05
2019-03-03T09:27:08.277Z,2.00
2019-03-03T09:29:55.674Z,2.75
2019-03-03T09:32:44.228Z,2.00
2019-03-03T09:35:32.197Z,2.35
2019-03-03T09:38:21.724Z,1.65
2019-03-03T09:41:02.266Z,1.62
2019-03-03T09:43:52.054Z,2.27
2019-03-03T09:46:54.634Z,1.77
2019-03-03T09:49:42.964Z,1.70
2019-03-03T09:52:35.328Z,1.40
2019-03-03T09:55:14.545Z,1.82
2019-03-03T09:58:03.409Z,1.87
2019-03-03T10:00:56.403Z,2.00
2019-03-03T10:03:38.226Z,2.75
2019-03-03T10:06:27.813Z,2.08
2019-03-03T10:09:16.069Z,1.82
2019-03-03T10:12:07.364Z,1.50
2019-03-03T10:14:56.848Z,1.82
2019-03-03T10:17:42.454Z,2.00
2019-03-03T10:20:38.134Z,1.80
2019-03-03T10:23:33.701Z,2.10
2019-03-03T10:26:22.900Z,1.60
2019-03-03T10:29:10.425Z,1.92
2019-03-03T10:32:07.405Z,1.90
2019-03-03T10:34:52.763Z,1.47
2019-03-03T10:37:41.388Z,1.95
2019-03-03T10:40:40.351Z,1.72
2019-03-03T10:43:24.928Z,1.80
2019-03-03T10:46:29.846Z,1.80
2019-03-03T10:49:10.576Z,2.05
2019-03-03T10:52:03.100Z,2.08
2019-03-03T10:55:05.035Z,1.45
2019-03-03T10:57:53.142Z,2.15
2019-03-03T11:00:31.097Z,1.70
2019-03-03T11:03:14.675Z,1.70
2019-03-03T11:06:14.588Z,1.60
2019-03-03T11:09:04.193Z,1.80
2019-03-03T11:11:56.813Z,1.70
2019-03-03T11:14:37.666Z,1.60
2019-03-03T11:17:42.739Z,1.70
2019-03-03T11:20:26.710Z,1.98
2019-03-03T11:23:22.289Z,1.75
2019-03-03T11:26:06.831Z,1.75
2019-03-03T11:28:59.308Z,1.62
2019-03-03T11:32:08.346Z,1.65
2019-03-03T11:35:01.843Z,1.62
2019-03-03T11:38:03.213Z,1.80
2019-03-03T11:40:46.985Z,1.65
2019-03-03T11:43:49.660Z,1.87
2019-03-03T11:46:27.541Z,1.72
2019-03-03T11:49:03.227Z,2.10
2019-03-03T11:51:47.835Z,2.02
2019-03-03T11:54:25.968Z,2.05
2019-03-03T11:57:30.977Z,1.50
2019-03-03T12:00:22.104Z,2.00
2019-03-03T12:03:10.314Z,1.92
2019-03-03T12:06:18.252Z,1.62
2019-03-03T12:09:08.917Z,1.80
2019-03-03T12:12:04.834Z,1.42
2019-03-03T12:15:01.647Z,1.72
2019-03-03T12:17:41.085Z,1.50
2019-03-03T12:20:37.321Z,1.77
2019-03-03T12:23:25.718Z,1.57
2019-03-03T12:26:14.357Z,1.98
2019-03-03T12:29:04.653Z,1.42
2019-03-03T12:31:54.211Z,1.95
2019-03-03T12:34:42.302Z,1.82
2019-03-03T12:37:19.886Z,2.10
2019-03-03T12:40:13.441Z,1.90
2019-03-03T12:42:59.623Z,1.60
2019-03-03T12:45:40.600Z,1.98
2019-03-03T12:48:45.642Z,1.70
2019-03-03T12:51:29.535Z,1.72
2019-03-03T12:54:31.399Z,1.87
2019-03-03T12:57:23.939Z,1.87
2019-03-03T13:00:21.100Z,1.70
2019-03-03T13:03:13.628Z,1.65
2019-03-03T13:06:02.941Z,1.35
2019-03-03T13:08:59.194Z,2.00
2019-03-03T13:11:43.724Z,2.00
2019-03-03T13:14:31.944Z,1.62
2019-03-03T13:17:20.502Z,1.45
2019-03-03T13:20:25.182Z,1.77
2019-03-03T13:23:22.189Z,1.72
2019-03-03T13:26:21.073Z,2.08
2019-03-03T13:29:11.663Z,1.77
2019-03-03T13:32:10.127Z,2.10
2019-03-03T13:35:04.481Z,1.70
2019-03-03T13:38:01.549Z,1.85
2019-03-03T13:40:56.303Z,2.20
2019-03-03T13:43:27.227Z,1.87
2019-03-03T13:45:58.062Z,1.65
2019-03-03T13:48:28.800Z,1.98
2019-03-03T13:50:59.455Z,2.25
2019-03-03T13:53:31.544Z,2.40
2019-03-03T13:56:04.541Z,1.75
2019-03-03T13:58:35.278Z,1.80
2019-03-03T14:01:06.330Z,1.65
2019-03-03T14:03:37.062Z,1.70
2019-03-03T14:06:07.731Z,1.75
2019-03-03T14:08:39.549Z,2.08
2019-03-03T14:11:11.737Z,1.70
2019-03-03T14:13:43.802Z,1.80
2019-03-03T14:16:17.643Z,2.22
2019-03-03T14:18:48.388Z,1.65
2019-03-03T14:21:19.090Z,1.87
2019-03-03T14:23:50.299Z,1.92
2019-03-03T14:26:20.971Z,1.95
2019-03-03T14:28:55.226Z,2.08
2019-03-03T14:31:24.508Z,2.22
2019-03-03T14:33:55.186Z,1.90
2019-03-03T14:36:25.756Z,1.90
2019-03-03T14:38:56.479Z,1.52
2019-03-03T14:41:27.050Z,1.82
2019-03-03T14:43:57.705Z,1.77
2019-03-03T14:46:29.372Z,1.92
2019-03-03T14:49:00.119Z,1.80
2019-03-03T14:51:30.926Z,1.47
2019-03-03T14:54:03.374Z,1.70
2019-03-03T14:56:34.151Z,1.62
2019-03-03T14:59:04.816Z,1.90
2019-03-03T15:01:35.703Z,1.70
2019-03-03T15:04:06.380Z,1.80
2019-03-03T15:06:36.947Z,1.85
2019-03-03T15:09:19.359Z,1.80
2019-03-03T15:11:50.371Z,1.57
2019-03-03T15:14:20.992Z,2.02
2019-03-03T15:16:51.587Z,2.12
2019-03-03T15:19:22.245Z,1.75
2019-03-03T15:21:54.615Z,2.10
2019-03-03T15:24:25.432Z,1.67
2019-03-03T15:26:56.184Z,1.80
2019-03-03T15:29:26.855Z,1.87
2019-03-03T15:31:57.419Z,2.25
2019-03-03T15:34:28.152Z,1.55
2019-03-03T15:36:58.884Z,1.72
2019-03-03T15:39:29.753Z,2.17
2019-03-03T15:42:00.451Z,2.30
2019-03-03T15:44:32.315Z,1.87
2019-03-03T15:47:04.527Z,2.22
2019-03-03T15:49:35.192Z,1.98
2019-03-03T15:52:07.465Z,1.75
2019-03-03T15:54:39.669Z,1.80
2019-03-03T15:57:10.217Z,2.10
2019-03-03T15:59:40.932Z,2.33
2019-03-03T16:02:13.886Z,1.60
2019-03-03T16:04:44.688Z,1.77
2019-03-03T16:07:15.488Z,2.12
2019-03-03T16:09:46.090Z,1.62
2019-03-03T16:12:16.683Z,2.00
2019-03-03T16:14:47.457Z,1.98
2019-03-03T16:17:18.106Z,1.95
2019-03-03T16:19:48.936Z,1.87
2019-03-03T16:22:19.633Z,1.77
2019-03-03T16:24:50.281Z,1.80
2019-03-03T16:27:22.033Z,1.70
2019-03-03T16:30:14.279Z,1.70
2019-03-03T16:32:44.944Z,2.90
2019-03-03T16:35:16.424Z,2.60
2019-03-03T16:37:48.826Z,1.72
2019-03-03T16:40:21.577Z,1.60
2019-03-03T16:42:53.481Z,1.62
2019-03-03T16:45:25.829Z,1.50
2019-03-03T16:47:56.598Z,1.90
2019-03-03T16:50:27.333Z,1.57
2019-03-03T16:52:57.932Z,2.98
2019-03-03T16:55:28.551Z,2.58
2019-03-03T16:57:59.162Z,1.87
2019-03-03T17:00:29.969Z,2.08
2019-03-03T17:03:00.541Z,1.92
2019-03-03T17:05:31.108Z,1.20
2019-03-03T17:08:01.872Z,2.30
2019-03-03T17:10:35.317Z,2.15
2019-03-03T17:13:07.772Z,2.05
2019-03-03T17:15:38.426Z,1.90
2019-03-03T17:18:09.319Z,1.82
2019-03-03T17:20:40.051Z,1.60
2019-03-03T17:23:10.944Z,1.50
2019-03-03T17:25:41.626Z,1.45
2019-03-03T17:28:12.461Z,1.55
2019-03-03T17:30:43.115Z,2.15
2019-03-03T17:33:13.867Z,1.60
2019-03-03T17:35:44.556Z,1.82
2019-03-03T17:38:15.207Z,1.50
2019-03-03T17:40:45.899Z,1.95
2019-03-03T17:43:16.514Z,1.80
2019-03-03T17:45:47.049Z,1.70
2019-03-03T17:48:17.622Z,1.37
2019-03-03T17:50:48.301Z,1.70
2019-03-03T17:53:20.802Z,1.90
2019-03-03T17:55:52.821Z,2.10
2019-03-03T17:58:23.416Z,1.80
2019-03-03T18:00:54.154Z,1.95
2019-03-03T18:03:24.710Z,1.77
2019-03-03T18:05:56.292Z,1.77
2019-03-03T18:08:26.855Z,1.65
2019-03-03T18:10:57.466Z,2.02
2019-03-03T18:13:28.212Z,2.08
2019-03-03T18:15:58.816Z,1.70
2019-03-03T18:18:29.462Z,1.55
2019-03-03T18:21:00.069Z,1.60
2019-03-03T18:23:30.717Z,1.62
2019-03-03T18:26:01.392Z,1.70
2019-03-03T18:28:32.067Z,1.60
2019-03-03T18:31:02.721Z,1.65
2019-03-03T18:33:33.542Z,1.72
2019-03-03T18:36:04.186Z,1.60
2019-03-03T18:38:34.829Z,1.40
2019-03-03T18:41:05.633Z,1.52
2019-03-03T18:43:36.240Z,1.50
2019-03-03T18:46:06.864Z,1.17
2019-03-03T18:48:37.438Z,1.52
2019-03-03T18:51:08.217Z,1.50
2019-03-03T18:53:38.930Z,1.35
2019-03-03T18:56:09.612Z,1.52
2019-03-03T18:58:40.173Z,1.50
2019-03-03T19:01:10.837Z,1.47
2019-03-03T19:03:41.422Z,1.35
2019-03-03T19:06:12.062Z,1.80
2019-03-03T19:08:42.662Z,1.70
2019-03-03T19:11:13.451Z,1.80
2019-03-03T19:13:44.013Z,1.35
2019-03-03T19:16:14.637Z,1.25
2019-03-03T19:18:46.390Z,1.40
2019-03-03T19:21:18.107Z,1.47
2019-03-03T19:23:48.849Z,1.35
2019-03-03T19:26:19.551Z,0.90
2019-03-03T19:28:52.693Z,1.40
2019-03-03T19:31:23.296Z,1.67
2019-03-03T19:33:56.149Z,1.37
2019-03-03T19:36:26.848Z,1.20
2019-03-03T19:38:59.302Z,1.60
2019-03-03T19:41:29.987Z,1.72
2019-03-03T19:44:00.822Z,1.35
2019-03-03T19:46:31.455Z,1.37
2019-03-03T19:49:01.972Z,0.90
2019-03-03T19:51:32.715Z,1.15
2019-03-03T19:54:23.840Z,1.25
2019-03-03T19:56:54.718Z,1.55
2019-03-03T19:59:25.289Z,1.80
2019-03-03T20:01:55.940Z,1.42
2019-03-03T20:04:26.618Z,1.25
2019-03-03T20:06:57.306Z,1.40
2019-03-03T20:09:27.903Z,1.47
2019-03-03T20:11:58.539Z,1.37
2019-03-03T20:14:29.212Z,0.95
2019-03-03T20:16:59.906Z,1.45
2019-03-03T20:19:31.618Z,1.22
2019-03-03T20:22:03.437Z,1.35
2019-03-03T20:24:34.059Z,1.37
2019-03-03T20:27:04.813Z,1.52
2019-03-03T20:29:38.663Z,1.30
2019-03-03T20:32:09.300Z,1.25
2019-03-03T20:34:41.031Z,1.02
2019-03-03T20:37:11.599Z,1.10
2019-03-03T20:39:42.303Z,1.20
2019-03-03T20:42:12.975Z,1.15
2019-03-03T20:44:43.564Z,1.10
2019-03-03T20:47:14.203Z,1.35
2019-03-03T20:49:45.937Z,1.02
2019-03-03T20:52:16.635Z,1.80
2019-03-03T20:54:47.233Z,1.67
2019-03-03T20:57:17.810Z,1.57
2019-03-03T20:59:48.488Z,1.30
2019-03-03T21:02:19.087Z,1.32
2019-03-03T21:04:49.762Z,1.40
2019-03-03T21:07:20.360Z,1.32
2019-03-03T21:09:51.459Z,1.30
2019-03-03T21:12:22.017Z,1.35
2019-03-03T21:14:53.711Z,1.12
2019-03-03T21:17:24.407Z,1.00
2019-03-03T21:19:55.223Z,1.47
2019-03-03T21:22:25.830Z,0.93
2019-03-03T21:24:56.433Z,1.30
2019-03-03T21:27:27.097Z,1.60
2019-03-03T21:29:57.737Z,1.25
2019-03-03T21:32:28.366Z,1.40
2019-03-03T21:34:58.968Z,1.30
2019-03-03T21:37:31.352Z,1.40
2019-03-03T21:40:03.383Z,1.30
2019-03-03T21:42:34.170Z,1.35
2019-03-03T21:45:05.652Z,1.30
2019-03-03T21:47:36.234Z,1.22
2019-03-03T21:50:09.168Z,1.17
2019-03-03T21:52:41.319Z,1.55
2019-03-03T21:55:12.543Z,1.42
2019-03-03T21:57:43.406Z,1.20
2019-03-03T22:00:31.770Z,1.40
2019-03-03T22:03:02.326Z,1.40
2019-03-03T22:05:33.037Z,1.20
2019-03-03T22:08:05.099Z,1.70
2019-03-03T22:10:36.902Z,1.27
2019-03-03T22:13:14.760Z,1.60
2019-03-03T22:15:46.344Z,1.30
2019-03-03T22:18:16.887Z,1.45
2019-03-03T22:20:47.500Z,1.35
2019-03-03T22:23:18.085Z,1.27
2019-03-03T22:25:48.692Z,1.40
2019-03-03T22:28:19.269Z,1.45
2019-03-03T22:30:51.722Z,1.42
2019-03-03T22:33:22.388Z,1.30
2019-03-03T22:35:54.419Z,1.50
2019-03-03T22:38:26.822Z,1.40
2019-03-03T22:40:57.502Z,1.40
2019-03-03T22:43:28.101Z,1.20
2019-03-03T22:45:58.748Z,1.50
2019-03-03T22:48:29.331Z,1.12
2019-03-03T22:50:59.999Z,1.40
2019-03-03T22:53:30.706Z,1.80
2019-03-03T22:56:01.286Z,1.40
2019-03-03T22:58:33.341Z,1.15
2019-03-03T23:01:13.613Z,1.37
2019-03-03T23:04:10.211Z,1.45
2019-03-03T23:07:10.982Z,1.42
2019-03-03T23:10:43.514Z,1.20
2019-03-03T23:14:15.932Z,1.17
2019-03-03T23:18:03.771Z,1.62
2019-03-03T23:21:26.925Z,1.80
2019-03-03T23:24:36.959Z,1.27
2019-03-03T23:27:08.650Z,1.30
2019-03-03T23:29:39.382Z,1.42
2019-03-03T23:32:10.041Z,1.25
2019-03-03T23:34:40.699Z,1.40
2019-03-03T23:37:11.396Z,1.65
2019-03-03T23:39:43.077Z,1.20
2019-03-03T23:42:15.118Z,1.40
2019-03-03T23:44:45.700Z,1.27
2019-03-03T23:47:17.360Z,1.50
2019-03-03T23:49:47.961Z,1.50
2019-03-03T23:52:18.499Z,1.05
2019-03-03T23:54:49.182Z,1.25
2019-03-03T23:57:19.774Z,1.42
2019-03-03T23:59:50.382Z,1.60
